createdAt,value
2023-05-20T00:01:34.628Z,100.00
2023-05-20T00:04:01.347Z,100.00
2023-05-20T00:06:27.940Z,100.00
2023-05-20T00:08:55.737Z,100.00
2023-05-20T00:11:22.241Z,100.00
2023-05-20T00:13:49.692Z,100.00
2023-05-20T00:16:16.287Z,100.00
2023-05-20T00:18:42.848Z,100.00
2023-05-20T00:21:09.380Z,100.00
2023-05-20T00:23:35.956Z,100.00
2023-05-20T00:26:02.490Z,100.00
2023-05-20T00:28:28.982Z,100.00
2023-05-20T00:30:56.465Z,100.00
2023-05-20T00:33:22.940Z,100.00
2023-05-20T00:35:49.571Z,100.00
2023-05-20T00:38:16.098Z,100.00
2023-05-20T00:40:42.577Z,100.00
2023-05-20T00:43:11.424Z,100.00
2023-05-20T00:45:38.848Z,100.00
2023-05-20T00:48:07.226Z,100.00
2023-05-20T00:50:33.955Z,100.00
2023-05-20T00:53:00.635Z,100.00
2023-05-20T00:55:27.471Z,100.00
2023-05-20T00:57:54.903Z,100.00
2023-05-20T01:00:21.441Z,100.00
2023-05-20T01:02:48.157Z,100.00
2023-05-20T01:05:14.829Z,100.00
2023-05-20T01:07:41.978Z,100.00
2023-05-20T01:10:09.659Z,100.00
2023-05-20T01:12:42.640Z,100.00
2023-05-20T01:15:11.297Z,100.00
2023-05-20T01:17:47.702Z,100.00
2023-05-20T01:20:15.260Z,100.00
2023-05-20T01:22:48.200Z,100.00
2023-05-20T01:25:14.790Z,100.00
2023-05-20T01:27:41.802Z,100.00
2023-05-20T01:30:08.939Z,100.00
2023-05-20T01:32:41.131Z,100.00
2023-05-20T01:35:08.842Z,100.00
2023-05-20T01:37:40.989Z,100.00
2023-05-20T01:40:09.592Z,100.00
2023-05-20T01:42:38.907Z,100.00
2023-05-20T01:45:06.239Z,100.00
2023-05-20T01:47:32.790Z,100.00
2023-05-20T01:49:59.327Z,100.00
2023-05-20T01:52:25.961Z,100.00
2023-05-20T01:54:53.596Z,100.00
2023-05-20T01:57:21.935Z,100.00
2023-05-20T01:59:48.526Z,100.00
2023-05-20T02:02:15.480Z,100.00
2023-05-20T02:04:48.063Z,100.00
2023-05-20T02:07:18.934Z,100.00
2023-05-20T02:09:47.690Z,100.00
2023-05-20T02:12:17.147Z,100.00
2023-05-20T02:14:45.573Z,100.00
2023-05-20T02:17:12.861Z,100.00
2023-05-20T02:19:41.986Z,100.00
2023-05-20T02:22:08.560Z,100.00
2023-05-20T02:27:34.185Z,100.00
2023-05-20T02:30:01.246Z,100.00
2023-05-20T02:32:28.982Z,100.00
2023-05-20T02:34:55.748Z,100.00
2023-05-20T02:37:22.269Z,100.00
2023-05-20T02:39:49.312Z,100.00
2023-05-20T02:42:15.912Z,100.00
2023-05-20T02:44:45.486Z,100.00
2023-05-20T02:47:14.145Z,100.00
2023-05-20T02:49:40.791Z,100.00
2023-05-20T02:52:08.848Z,100.00
2023-05-20T02:54:35.349Z,100.00
2023-05-20T02:57:02.306Z,100.00
2023-05-20T02:59:28.792Z,100.00
2023-05-20T03:01:55.356Z,100.00
2023-05-20T03:04:21.992Z,100.00
2023-05-20T03:06:52.847Z,100.00
2023-05-20T03:09:19.608Z,100.00
2023-05-20T03:11:47.672Z,100.00
2023-05-20T03:14:14.216Z,100.00
2023-05-20T03:16:41.144Z,100.00
2023-05-20T03:19:07.804Z,100.00
2023-05-20T03:21:35.456Z,100.00
2023-05-20T03:24:01.940Z,100.00
2023-05-20T03:26:28.546Z,100.00
2023-05-20T03:28:57.030Z,100.00
2023-05-20T03:31:23.606Z,100.00
2023-05-20T03:33:50.087Z,100.00
2023-05-20T03:36:20.984Z,100.00
2023-05-20T03:38:47.499Z,100.00
2023-05-20T03:41:14.078Z,100.00
2023-05-20T03:43:40.649Z,100.00
2023-05-20T03:46:08.253Z,100.00
2023-05-20T03:48:34.863Z,100.00
2023-05-20T03:51:01.977Z,100.00
2023-05-20T03:53:28.602Z,100.00
2023-05-20T03:55:55.173Z,100.00
2023-05-20T03:58:22.270Z,100.00
2023-05-20T04:00:49.332Z,100.00
2023-05-20T04:03:15.860Z,100.00
2023-05-20T04:05:42.425Z,100.00
2023-05-20T04:08:09.928Z,100.00
2023-05-20T04:10:36.833Z,100.00
2023-05-20T04:13:03.442Z,100.00
2023-05-20T04:15:30.811Z,100.00
2023-05-20T04:17:57.381Z,100.00
2023-05-20T04:20:24.437Z,100.00
2023-05-20T04:22:51.148Z,100.00
2023-05-20T04:25:18.066Z,100.00
2023-05-20T04:27:44.754Z,100.00
2023-05-20T04:30:12.108Z,100.00
2023-05-20T04:32:38.861Z,100.00
2023-05-20T04:35:11.492Z,100.00
2023-05-20T04:37:38.443Z,100.00
2023-05-20T04:40:12.599Z,100.00
2023-05-20T04:42:39.711Z,100.00
2023-05-20T04:45:08.792Z,100.00
2023-05-20T04:47:39.328Z,100.00
2023-05-20T04:50:10.605Z,100.00
2023-05-20T04:52:42.026Z,100.00
2023-05-20T04:55:10.271Z,100.00
2023-05-20T04:57:39.629Z,100.00
2023-05-20T05:00:07.906Z,100.00
2023-05-20T05:02:35.904Z,97.89
2023-05-20T05:05:02.561Z,94.51
2023-05-20T05:07:30.195Z,91.10
2023-05-20T05:09:56.728Z,88.03
2023-05-20T05:12:23.570Z,83.49
2023-05-20T05:14:50.129Z,81.64
2023-05-20T05:17:16.701Z,81.08
2023-05-20T05:19:43.259Z,79.42
2023-05-20T05:22:09.770Z,77.20
2023-05-20T05:24:36.242Z,76.46
2023-05-20T05:27:02.770Z,75.62
2023-05-20T05:29:29.300Z,72.34
2023-05-20T05:31:56.036Z,68.27
2023-05-20T05:34:22.588Z,68.47
2023-05-20T05:36:49.112Z,70.44
2023-05-20T05:39:15.753Z,70.00
2023-05-20T05:41:42.233Z,72.41
2023-05-20T05:44:08.730Z,74.66
2023-05-20T05:46:35.244Z,70.31
2023-05-20T05:49:01.817Z,69.20
2023-05-20T05:51:29.087Z,66.37
2023-05-20T05:53:56.142Z,68.91
2023-05-20T05:56:22.640Z,67.53
2023-05-20T05:58:49.409Z,66.04
2023-05-20T06:01:16.134Z,64.63
2023-05-20T06:03:42.830Z,62.25
2023-05-20T06:06:09.503Z,60.87
2023-05-20T06:08:36.003Z,62.31
2023-05-20T06:11:02.683Z,61.93
2023-05-20T06:13:29.236Z,60.19
2023-05-20T06:15:55.739Z,59.63
2023-05-20T06:18:22.215Z,59.00
2023-05-20T06:20:55.702Z,57.96
2023-05-20T06:23:22.235Z,57.34
2023-05-20T06:25:49.235Z,58.15
2023-05-20T06:28:15.722Z,57.25
2023-05-20T06:30:42.360Z,57.09
2023-05-20T06:33:08.937Z,56.92
2023-05-20T06:35:35.821Z,57.04
2023-05-20T06:38:03.103Z,56.82
2023-05-20T06:40:29.599Z,55.80
2023-05-20T06:42:56.216Z,56.54
2023-05-20T06:45:22.826Z,57.43
2023-05-20T06:47:50.068Z,57.16
2023-05-20T06:50:16.710Z,56.52
2023-05-20T06:52:43.298Z,56.99
2023-05-20T06:55:10.329Z,59.46
2023-05-20T06:57:36.983Z,59.39
2023-05-20T07:00:05.936Z,59.10
2023-05-20T07:02:33.797Z,58.40
2023-05-20T07:05:00.365Z,56.44
2023-05-20T07:07:26.890Z,57.37
2023-05-20T07:09:55.034Z,57.07
2023-05-20T07:12:21.518Z,56.76
2023-05-20T07:14:50.189Z,54.25
2023-05-20T07:17:16.732Z,54.29
2023-05-20T07:19:43.384Z,52.32
2023-05-20T07:22:09.941Z,52.39
2023-05-20T07:24:36.830Z,52.33
2023-05-20T07:27:04.028Z,53.11
2023-05-20T07:29:31.735Z,53.51
2023-05-20T07:31:58.416Z,53.91
2023-05-20T07:34:25.029Z,53.69
2023-05-20T07:36:51.711Z,52.75
2023-05-20T07:39:18.196Z,52.95
2023-05-20T07:41:44.823Z,53.76
2023-05-20T07:44:12.683Z,54.77
2023-05-20T07:46:40.077Z,55.31
2023-05-20T07:49:06.633Z,54.26
2023-05-20T07:51:33.169Z,51.83
2023-05-20T07:53:59.903Z,51.31
2023-05-20T07:56:26.486Z,50.05
2023-05-20T07:58:55.338Z,50.28
2023-05-20T08:01:22.135Z,51.85
2023-05-20T08:03:48.663Z,51.31
2023-05-20T08:06:15.792Z,50.40
2023-05-20T08:08:43.075Z,49.18
2023-05-20T08:11:10.115Z,51.41
2023-05-20T08:13:37.696Z,49.59
2023-05-20T08:16:05.830Z,50.35
2023-05-20T08:18:34.190Z,51.09
2023-05-20T08:21:00.913Z,51.50
2023-05-20T08:23:27.437Z,50.74
2023-05-20T08:25:53.950Z,50.54
2023-05-20T08:28:22.755Z,49.83
2023-05-20T08:30:50.265Z,51.23
2023-05-20T08:33:17.813Z,51.26
2023-05-20T08:35:44.366Z,51.36
2023-05-20T08:38:10.883Z,50.82
2023-05-20T08:40:37.374Z,52.20
2023-05-20T08:43:04.535Z,51.41
2023-05-20T08:45:35.051Z,51.97
2023-05-20T08:48:02.787Z,52.43
2023-05-20T08:50:29.318Z,51.47
2023-05-20T08:52:57.993Z,52.27
2023-05-20T08:55:37.930Z,51.15
2023-05-20T08:58:05.233Z,50.37
2023-05-20T09:00:32.215Z,50.22
2023-05-20T09:03:01.335Z,50.32
2023-05-20T09:05:28.106Z,49.91
2023-05-20T09:08:06.470Z,50.24
2023-05-20T09:10:33.657Z,50.87
2023-05-20T09:13:04.479Z,51.20
2023-05-20T09:15:32.518Z,50.83
2023-05-20T09:18:03.997Z,51.84
2023-05-20T09:20:32.339Z,52.02
2023-05-20T09:23:00.532Z,51.09
2023-05-20T09:25:29.016Z,50.09
2023-05-20T09:27:56.674Z,50.53
2023-05-20T09:30:23.864Z,51.65
2023-05-20T09:32:58.096Z,52.94
2023-05-20T09:35:28.184Z,53.88
2023-05-20T09:37:57.353Z,53.11
2023-05-20T09:40:28.289Z,51.65
2023-05-20T09:43:01.703Z,53.23
2023-05-20T09:45:28.602Z,49.81
2023-05-20T09:47:56.828Z,52.42
2023-05-20T09:50:24.790Z,50.38
2023-05-20T09:52:52.731Z,51.57
2023-05-20T09:55:21.002Z,51.11
2023-05-20T09:57:47.516Z,51.48
2023-05-20T10:00:17.380Z,50.91
2023-05-20T10:02:46.473Z,51.25
2023-05-20T10:05:25.867Z,51.94
2023-05-20T10:07:59.900Z,51.54
2023-05-20T10:11:05.897Z,53.12
2023-05-20T10:13:53.212Z,53.77
2023-05-20T10:16:37.920Z,53.29
2023-05-20T10:19:23.208Z,52.48
2023-05-20T10:22:04.473Z,54.96
2023-05-20T10:24:33.646Z,53.54
2023-05-20T10:27:03.676Z,52.80
2023-05-20T10:29:30.716Z,51.31
2023-05-20T10:31:57.293Z,50.81
2023-05-20T10:34:23.961Z,51.97
2023-05-20T10:36:57.556Z,51.63
2023-05-20T10:39:29.492Z,50.99
2023-05-20T10:42:09.426Z,51.85
2023-05-20T10:44:46.059Z,52.33
2023-05-20T10:49:47.406Z,51.54
2023-05-20T10:52:14.546Z,52.43
2023-05-20T10:54:47.723Z,51.33
2023-05-20T10:57:15.533Z,50.12
2023-05-20T10:59:42.349Z,49.91
2023-05-20T11:02:12.621Z,50.19
2023-05-20T11:04:39.603Z,50.00
2023-05-20T11:07:06.267Z,50.19
2023-05-20T11:09:33.974Z,50.18
2023-05-20T11:12:00.821Z,49.31
2023-05-20T11:14:30.206Z,51.28
2023-05-20T11:16:58.745Z,49.24
2023-05-20T11:19:26.868Z,50.28
2023-05-20T11:21:54.036Z,51.26
2023-05-20T11:24:28.706Z,49.22
2023-05-20T11:26:57.577Z,50.72
2023-05-20T11:29:26.565Z,49.79
2023-05-20T11:31:53.184Z,50.21
2023-05-20T11:34:25.780Z,50.17
2023-05-20T11:36:59.158Z,49.63
2023-05-20T11:39:29.973Z,51.19
2023-05-20T11:41:57.692Z,51.14
2023-05-20T11:44:24.814Z,50.64
2023-05-20T11:46:51.354Z,51.26
2023-05-20T11:49:17.905Z,51.77
2023-05-20T11:51:45.520Z,52.05
2023-05-20T11:54:12.162Z,51.41
2023-05-20T11:56:41.420Z,51.00
2023-05-20T11:59:10.618Z,49.80
2023-05-20T12:01:43.210Z,49.62
2023-05-20T12:04:10.435Z,50.02
2023-05-20T12:06:37.485Z,49.33
2023-05-20T12:09:08.782Z,49.21
2023-05-20T12:11:42.478Z,49.16
2023-05-20T12:14:09.742Z,49.28
2023-05-20T12:16:37.399Z,49.76
2023-05-20T12:19:04.525Z,50.20
2023-05-20T12:21:31.610Z,49.13
2023-05-20T12:24:01.109Z,47.91
2023-05-20T12:26:28.766Z,47.70
2023-05-20T12:28:56.228Z,48.43
2023-05-20T12:31:22.873Z,47.76
2023-05-20T12:33:49.525Z,47.42
2023-05-20T12:36:16.426Z,48.51
2023-05-20T12:38:43.303Z,48.21
2023-05-20T12:41:09.888Z,47.59
2023-05-20T12:43:37.621Z,45.66
2023-05-20T12:46:06.592Z,44.88
2023-05-20T12:48:33.195Z,44.17
2023-05-20T12:51:00.117Z,45.85
2023-05-20T12:53:26.582Z,45.37
2023-05-20T12:55:53.345Z,45.70
2023-05-20T12:58:19.880Z,45.35
2023-05-20T13:00:46.448Z,46.19
2023-05-20T13:03:13.112Z,46.36
2023-05-20T13:05:39.801Z,47.29
2023-05-20T13:08:06.379Z,47.52
2023-05-20T13:10:33.599Z,46.25
2023-05-20T13:13:00.363Z,45.83
2023-05-20T13:15:26.932Z,46.77
2023-05-20T13:17:54.673Z,46.70
2023-05-20T13:20:21.568Z,45.36
2023-05-20T13:22:54.271Z,45.92
2023-05-20T13:25:21.111Z,45.72
2023-05-20T13:27:47.641Z,45.06
2023-05-20T13:30:14.152Z,46.04
2023-05-20T13:32:41.762Z,46.38
2023-05-20T13:35:09.192Z,45.46
2023-05-20T13:37:35.690Z,45.59
2023-05-20T13:40:02.262Z,45.16
2023-05-20T13:42:28.790Z,46.11
2023-05-20T13:44:55.268Z,44.70
2023-05-20T13:47:22.119Z,45.52
2023-05-20T13:49:48.667Z,46.20
2023-05-20T13:52:15.276Z,45.42
2023-05-20T13:54:43.027Z,46.48
2023-05-20T13:57:10.633Z,45.82
2023-05-20T13:59:38.641Z,45.56
2023-05-20T14:02:05.513Z,44.86
2023-05-20T14:04:36.856Z,44.71
2023-05-20T14:07:03.684Z,44.46
2023-05-20T14:09:30.231Z,45.54
2023-05-20T14:11:56.807Z,46.20
2023-05-20T14:14:23.296Z,45.61
2023-05-20T14:16:49.782Z,46.23
2023-05-20T14:19:16.272Z,47.04
2023-05-20T14:21:42.817Z,47.19
2023-05-20T14:24:09.561Z,46.89
2023-05-20T14:26:36.346Z,47.78
2023-05-20T14:29:03.050Z,47.97
2023-05-20T14:31:29.624Z,47.89
2023-05-20T14:34:02.549Z,47.83
2023-05-20T14:36:29.213Z,47.32
2023-05-20T14:38:55.733Z,47.28
2023-05-20T14:41:22.455Z,47.39
2023-05-20T14:43:49.002Z,47.81
2023-05-20T14:46:16.044Z,47.59
2023-05-20T14:48:43.739Z,46.67
2023-05-20T14:51:10.338Z,46.15
2023-05-20T14:53:36.862Z,46.71
2023-05-20T14:56:03.483Z,46.93
2023-05-20T14:58:30.082Z,47.50
2023-05-20T15:00:56.987Z,47.42
2023-05-20T15:03:24.485Z,46.37
2023-05-20T15:05:52.126Z,46.57
2023-05-20T15:08:18.655Z,46.76
2023-05-20T15:10:45.285Z,46.97
2023-05-20T15:13:12.006Z,46.51
2023-05-20T15:15:38.546Z,46.52
2023-05-20T15:18:05.113Z,46.15
2023-05-20T15:20:31.694Z,46.74
2023-05-20T15:22:59.839Z,47.18
2023-05-20T15:25:27.663Z,47.21
2023-05-20T15:27:55.882Z,47.64
2023-05-20T15:30:22.921Z,46.82
2023-05-20T15:32:49.650Z,46.75
2023-05-20T15:35:16.291Z,46.01
2023-05-20T15:37:42.805Z,46.27
2023-05-20T15:40:09.965Z,45.40
2023-05-20T15:42:36.492Z,46.01
2023-05-20T15:45:03.151Z,46.30
2023-05-20T15:47:29.730Z,45.31
2023-05-20T15:49:57.435Z,43.79
2023-05-20T15:52:24.542Z,44.89
2023-05-20T15:54:51.153Z,45.25
2023-05-20T15:57:17.679Z,46.32
2023-05-20T15:59:44.200Z,45.42
2023-05-20T16:02:10.780Z,46.60
2023-05-20T16:04:37.445Z,45.97
2023-05-20T16:07:04.126Z,45.75
2023-05-20T16:09:31.109Z,46.32
2023-05-20T16:11:57.789Z,46.12
2023-05-20T16:14:24.400Z,45.94
2023-05-20T16:16:51.009Z,46.23
2023-05-20T16:19:17.757Z,46.79
2023-05-20T16:21:44.668Z,45.88
2023-05-20T16:24:11.161Z,46.96
2023-05-20T16:26:38.013Z,46.72
2023-05-20T16:29:04.531Z,47.47
2023-05-20T16:31:31.091Z,46.35
2023-05-20T16:33:58.080Z,47.44
2023-05-20T16:36:24.615Z,47.17
2023-05-20T16:38:51.395Z,47.57
2023-05-20T16:41:18.105Z,47.17
2023-05-20T16:43:44.739Z,47.28
2023-05-20T16:46:12.907Z,47.16
2023-05-20T16:48:40.157Z,47.08
2023-05-20T16:51:06.823Z,47.02
2023-05-20T16:53:33.326Z,47.87
2023-05-20T16:55:59.968Z,47.92
2023-05-20T16:58:26.746Z,48.29
2023-05-20T17:00:55.152Z,48.30
2023-05-20T17:03:21.907Z,48.99
2023-05-20T17:05:48.391Z,48.95
2023-05-20T17:08:15.021Z,49.28
2023-05-20T17:10:41.536Z,49.18
2023-05-20T17:13:08.033Z,49.16
2023-05-20T17:15:37.101Z,49.54
2023-05-20T17:18:04.731Z,49.42
2023-05-20T17:20:32.056Z,49.75
2023-05-20T17:22:58.984Z,48.66
2023-05-20T17:25:25.581Z,49.66
2023-05-20T17:27:52.096Z,49.99
2023-05-20T17:30:19.862Z,50.49
2023-05-20T17:32:46.517Z,50.26
2023-05-20T17:35:13.165Z,50.93
2023-05-20T17:37:39.799Z,51.32
2023-05-20T17:40:06.853Z,50.87
2023-05-20T17:42:33.685Z,50.83
2023-05-20T17:45:00.431Z,51.15
2023-05-20T17:47:28.017Z,50.79
2023-05-20T17:49:54.633Z,51.45
2023-05-20T17:52:21.188Z,52.28
2023-05-20T17:54:48.774Z,52.05
2023-05-20T17:57:15.538Z,52.41
2023-05-20T17:59:42.141Z,52.12
2023-05-20T18:02:08.939Z,53.24
2023-05-20T18:04:35.819Z,52.53
2023-05-20T18:07:03.972Z,52.83
2023-05-20T18:09:31.914Z,53.01
2023-05-20T18:11:58.430Z,53.30
2023-05-20T18:14:26.583Z,52.58
2023-05-20T18:17:00.229Z,52.38
2023-05-20T18:19:26.842Z,52.99
2023-05-20T18:21:53.540Z,53.23
2023-05-20T18:24:20.581Z,53.50
2023-05-20T18:26:48.177Z,53.68
2023-05-20T18:29:14.810Z,53.91
2023-05-20T18:31:43.383Z,53.98
2023-05-20T18:34:10.785Z,53.56
2023-05-20T18:36:37.524Z,53.89
2023-05-20T18:39:04.800Z,55.24
2023-05-20T18:41:43.267Z,55.61
2023-05-20T18:44:13.955Z,55.40
2023-05-20T18:46:40.577Z,55.00
2023-05-20T18:49:07.157Z,56.21
2023-05-20T18:51:33.900Z,55.86
2023-05-20T18:54:00.509Z,55.47
2023-05-20T18:56:27.435Z,55.92
2023-05-20T18:58:55.049Z,56.35
2023-05-20T19:01:21.956Z,56.57
2023-05-20T19:03:48.493Z,56.43
2023-05-20T19:06:16.506Z,56.21
2023-05-20T19:08:43.802Z,56.48
2023-05-20T19:11:11.416Z,57.18
2023-05-20T19:13:38.224Z,57.64
2023-05-20T19:16:04.934Z,57.22
2023-05-20T19:18:31.550Z,57.78
2023-05-20T19:20:58.070Z,57.89
2023-05-20T19:23:24.729Z,57.66
2023-05-20T19:25:51.311Z,57.30
2023-05-20T19:28:17.973Z,58.72
2023-05-20T19:30:44.544Z,59.00
2023-05-20T19:33:11.196Z,58.70
2023-05-20T19:35:37.774Z,59.12
2023-05-20T19:38:05.866Z,58.97
2023-05-20T19:40:32.626Z,59.27
2023-05-20T19:42:59.471Z,60.14
2023-05-20T19:45:26.055Z,59.60
2023-05-20T19:47:52.642Z,60.36
2023-05-20T19:50:19.297Z,60.29
2023-05-20T19:52:45.954Z,60.52
2023-05-20T19:55:12.570Z,60.72
2023-05-20T19:57:39.079Z,61.17
2023-05-20T20:00:07.255Z,61.98
2023-05-20T20:02:33.863Z,61.92
2023-05-20T20:05:01.197Z,61.58
2023-05-20T20:07:27.811Z,62.39
2023-05-20T20:09:55.371Z,62.56
2023-05-20T20:12:22.490Z,62.83
2023-05-20T20:14:49.219Z,62.46
2023-05-20T20:17:17.533Z,63.04
2023-05-20T20:19:48.687Z,63.54
2023-05-20T20:22:16.471Z,63.51
2023-05-20T20:24:42.974Z,64.62
2023-05-20T20:27:09.543Z,64.20
2023-05-20T20:29:36.286Z,64.88
2023-05-20T20:32:03.833Z,64.60
2023-05-20T20:34:30.486Z,65.56
2023-05-20T20:36:57.131Z,65.89
2023-05-20T20:39:25.118Z,66.68
2023-05-20T20:41:52.795Z,67.11
2023-05-20T20:44:22.578Z,67.04
2023-05-20T20:46:54.754Z,68.06
2023-05-20T20:49:23.056Z,69.64
2023-05-20T20:51:51.010Z,70.00
2023-05-20T20:54:17.619Z,70.81
2023-05-20T20:56:46.907Z,70.82
2023-05-20T20:59:15.623Z,70.35
2023-05-20T21:01:42.480Z,71.38
2023-05-20T21:04:13.710Z,71.15
2023-05-20T21:06:42.149Z,71.75
2023-05-20T21:09:09.424Z,72.48
2023-05-20T21:11:38.341Z,74.15
2023-05-20T21:14:06.536Z,73.55
2023-05-20T21:16:33.095Z,73.40
2023-05-20T21:18:59.668Z,76.20
2023-05-20T21:21:26.218Z,76.09
2023-05-20T21:23:54.197Z,75.95
2023-05-20T21:26:24.803Z,76.49
2023-05-20T21:28:52.486Z,77.02
2023-05-20T21:31:19.830Z,78.13
2023-05-20T21:33:46.566Z,78.42
2023-05-20T21:36:13.105Z,78.54
2023-05-20T21:38:39.927Z,78.44
2023-05-20T21:41:06.558Z,78.73
2023-05-20T21:43:33.101Z,80.35
2023-05-20T21:45:59.631Z,81.35
2023-05-20T21:48:27.121Z,81.40
2023-05-20T21:50:53.660Z,80.99
2023-05-20T21:53:21.291Z,80.99
2023-05-20T21:55:47.804Z,81.53
2023-05-20T21:58:14.372Z,82.77
2023-05-20T22:00:41.085Z,82.16
2023-05-20T22:03:07.748Z,81.33
2023-05-20T22:05:34.714Z,83.33
2023-05-20T22:08:01.910Z,83.53
2023-05-20T22:10:28.503Z,83.81
2023-05-20T22:12:55.627Z,85.23
2023-05-20T22:15:23.034Z,85.75
2023-05-20T22:17:49.769Z,85.18
2023-05-20T22:20:16.363Z,86.52
2023-05-20T22:22:42.863Z,87.48
2023-05-20T22:25:12.345Z,85.93
2023-05-20T22:27:39.115Z,86.79
2023-05-20T22:30:08.187Z,88.03
2023-05-20T22:32:34.711Z,88.29
2023-05-20T22:35:01.207Z,90.19
2023-05-20T22:37:28.900Z,89.47
2023-05-20T22:39:56.329Z,89.42
2023-05-20T22:42:22.893Z,88.25
2023-05-20T22:44:49.771Z,90.55
2023-05-20T22:47:16.356Z,88.19
2023-05-20T22:49:42.878Z,90.29
2023-05-20T22:52:09.403Z,90.79
2023-05-20T22:54:35.888Z,90.52
2023-05-20T22:57:02.854Z,90.74
2023-05-20T22:59:32.877Z,91.72
2023-05-20T23:01:59.393Z,91.46
2023-05-20T23:04:26.139Z,92.71
2023-05-20T23:06:53.778Z,92.91
2023-05-20T23:09:21.087Z,93.59
2023-05-20T23:11:47.658Z,92.67
2023-05-20T23:14:14.292Z,93.68
2023-05-20T23:16:42.191Z,93.68
2023-05-20T23:19:09.891Z,98.87
2023-05-20T23:21:37.394Z,100.00
2023-05-20T23:24:04.515Z,97.45
2023-05-20T23:26:31.515Z,96.49
2023-05-20T23:28:58.144Z,99.37
2023-05-20T23:31:26.846Z,97.49
2023-05-20T23:33:58.093Z,97.49
2023-05-20T23:36:25.734Z,98.19
2023-05-20T23:38:55.077Z,99.30
2023-05-20T23:41:22.388Z,100.00
2023-05-20T23:43:49.126Z,100.00
2023-05-20T23:46:15.830Z,100.00
2023-05-20T23:48:44.761Z,100.00
2023-05-20T23:51:13.652Z,100.00
2023-05-20T23:53:41.459Z,100.00
2023-05-20T23:56:09.287Z,100.00
2023-05-20T23:58:36.343Z,100.00
